Redding (RDD/KRDD)

Map

Destinations

Information

Location
Redding, CA
Local Time
15:38 / 3:38 pm
GMT Time
22:38 / 10:38 pm
Gates
3
No FAA reported delays
METAR KRDD 242153Z VRB04KT 10SM CLR 38/06 A2974 RMK AO2 SLP062 T03780061
TAF KRDD 241724Z 2418/2518 VRB04KT P6SM FEW250 FM242100 18010KT P6SM FEW250 FM250400 VRB02KT P6SM FEW250